createdAt,value
2023-01-28T00:00:29.665Z,99721.81
2023-01-28T00:01:06.691Z,99725.06
2023-01-28T00:01:38.955Z,99725.72
2023-01-28T00:02:14.034Z,99718.31
2023-01-28T00:02:49.666Z,99722.16
2023-01-28T00:03:21.853Z,99718.63
2023-01-28T00:03:53.864Z,99718.44
2023-01-28T00:04:25.910Z,99722.47
2023-01-28T00:04:57.802Z,99719.37
2023-01-28T00:05:30.098Z,99717.63
2023-01-28T00:06:07.164Z,99718.91
2023-01-28T00:06:39.249Z,99715.88
2023-01-28T00:07:11.068Z,99717.13
2023-01-28T00:07:43.248Z,99718.91
2023-01-28T00:08:15.133Z,99720.84
2023-01-28T00:08:47.244Z,99719.56
2023-01-28T00:09:19.600Z,99722.00
2023-01-28T00:09:52.034Z,99716.19
2023-01-28T00:10:23.956Z,99720.50
2023-01-28T00:10:59.632Z,99721.16
2023-01-28T00:11:31.940Z,99714.22
2023-01-28T00:12:03.980Z,99719.25
2023-01-28T00:12:35.881Z,99716.00
2023-01-28T00:13:07.995Z,99719.91
2023-01-28T00:13:40.346Z,99719.75
2023-01-28T00:14:12.609Z,99718.63
2023-01-28T00:14:46.315Z,99718.97
2023-01-28T00:15:18.272Z,99719.09
2023-01-28T00:15:56.507Z,99712.97
2023-01-28T00:16:28.795Z,99720.72
2023-01-28T00:17:01.347Z,99720.72
2023-01-28T00:17:33.530Z,99724.44
2023-01-28T00:18:05.529Z,99718.47
2023-01-28T00:18:37.817Z,99726.37
2023-01-28T00:19:09.917Z,99724.44
2023-01-28T00:19:41.876Z,99716.72
2023-01-28T00:20:13.915Z,99723.00
2023-01-28T00:20:56.884Z,99716.38
2023-01-28T00:21:28.846Z,99720.06
2023-01-28T00:22:01.022Z,99716.19
2023-01-28T00:22:33.005Z,99717.13
2023-01-28T00:23:04.940Z,99723.38
2023-01-28T00:23:38.599Z,99718.25
2023-01-28T00:24:10.644Z,99713.94
2023-01-28T00:24:42.580Z,99725.38
2023-01-28T00:25:15.151Z,99726.84
2023-01-28T00:25:47.191Z,99722.47
2023-01-28T00:26:19.224Z,99722.16
2023-01-28T00:26:52.178Z,99722.16
2023-01-28T00:27:24.403Z,99721.66
2023-01-28T00:27:56.381Z,99720.97
2023-01-28T00:28:28.683Z,99724.31
2023-01-28T00:29:00.598Z,99722.38
2023-01-28T00:29:32.493Z,99725.94
2023-01-28T00:30:04.858Z,99728.69
2023-01-28T00:30:37.151Z,99727.56
2023-01-28T00:31:10.953Z,99725.00
2023-01-28T00:31:43.059Z,99728.09
2023-01-28T00:32:15.289Z,99724.69
2023-01-28T00:32:47.512Z,99726.31
2023-01-28T00:33:19.808Z,99732.06
2023-01-28T00:33:52.477Z,99726.78
2023-01-28T00:34:24.317Z,99726.13
2023-01-28T00:34:56.194Z,99731.78
2023-01-28T00:35:28.064Z,99720.50
2023-01-28T00:36:01.488Z,99726.00
2023-01-28T00:36:33.904Z,99731.81
2023-01-28T00:37:06.463Z,99729.09
2023-01-28T00:37:38.363Z,99727.78
2023-01-28T00:38:10.692Z,99726.66
2023-01-28T00:38:43.662Z,99726.50
2023-01-28T00:39:18.429Z,99729.88
2023-01-28T00:39:50.362Z,99732.94
2023-01-28T00:40:22.271Z,99729.56
2023-01-28T00:40:54.293Z,99729.91
2023-01-28T00:41:28.621Z,99730.22
2023-01-28T00:42:03.337Z,99735.72
2023-01-28T00:42:35.414Z,99732.16
2023-01-28T00:43:07.379Z,99726.84
2023-01-28T00:43:40.864Z,99733.13
2023-01-28T00:44:13.945Z,99735.88
2023-01-28T00:44:45.850Z,99734.56
2023-01-28T00:45:17.713Z,99731.81
2023-01-28T00:45:50.455Z,99733.78
2023-01-28T00:46:23.200Z,99732.16
2023-01-28T00:46:55.136Z,99736.19
2023-01-28T00:47:27.144Z,99734.75
2023-01-28T00:47:59.034Z,99734.13
2023-01-28T00:48:31.220Z,99737.31
2023-01-28T00:49:03.438Z,99732.97
2023-01-28T00:49:35.297Z,99732.47
2023-01-28T00:50:07.524Z,99731.03
2023-01-28T00:50:40.374Z,99734.59
2023-01-28T00:51:14.064Z,99734.59
2023-01-28T00:51:46.032Z,99730.72
2023-01-28T00:52:20.829Z,99731.53
2023-01-28T00:52:52.718Z,99736.50
2023-01-28T00:53:24.726Z,99737.31
2023-01-28T00:53:56.634Z,99734.09
2023-01-28T00:54:28.862Z,99732.16
2023-01-28T00:55:01.075Z,99738.62
2023-01-28T00:55:33.013Z,99738.94
2023-01-28T00:56:06.929Z,99732.66
2023-01-28T00:56:38.929Z,99730.22
2023-01-28T00:57:10.795Z,99733.59
2023-01-28T00:57:42.731Z,99734.06
2023-01-28T00:58:14.607Z,99730.69
2023-01-28T00:58:46.951Z,99730.56
2023-01-28T00:59:29.450Z,99740.22
2023-01-28T01:00:01.682Z,99738.44
2023-01-28T01:00:33.679Z,99744.22
2023-01-28T01:01:20.159Z,99737.16
2023-01-28T01:01:52.285Z,99737.94
2023-01-28T01:02:27.072Z,99736.34
2023-01-28T01:03:00.065Z,99731.22
2023-01-28T01:03:31.983Z,99732.34
2023-01-28T01:04:04.066Z,99734.44
2023-01-28T01:04:36.096Z,99732.84
2023-01-28T01:05:08.737Z,99737.16
2023-01-28T01:05:40.616Z,99726.50
2023-01-28T01:06:15.460Z,99728.91
2023-01-28T01:06:47.363Z,99730.19
2023-01-28T01:07:19.212Z,99729.22
2023-01-28T01:07:53.252Z,99729.41
2023-01-28T01:08:34.891Z,99734.06
2023-01-28T01:09:09.019Z,99736.34
2023-01-28T01:09:40.883Z,99730.88
2023-01-28T01:10:16.923Z,99733.78
2023-01-28T01:10:48.804Z,99738.28
2023-01-28T01:11:20.711Z,99734.41
2023-01-28T01:11:52.653Z,99732.81
2023-01-28T01:12:24.518Z,99737.97
2023-01-28T01:12:58.117Z,99733.44
2023-01-28T01:13:31.497Z,99739.75
2023-01-28T01:14:05.277Z,99731.84
2023-01-28T01:14:37.318Z,99734.25
2023-01-28T01:15:10.538Z,99735.25
2023-01-28T01:15:43.514Z,99730.88
2023-01-28T01:16:16.726Z,99737.62
2023-01-28T01:16:48.627Z,99738.62
2023-01-28T01:17:21.788Z,99735.72
2023-01-28T01:17:53.725Z,99737.03
2023-01-28T01:18:25.586Z,99734.44
2023-01-28T01:18:59.307Z,99733.47
2023-01-28T01:19:31.559Z,99742.84
2023-01-28T01:20:05.795Z,99741.56
2023-01-28T01:20:45.574Z,99738.81
2023-01-28T01:21:19.996Z,99735.53
2023-01-28T01:21:51.891Z,99744.41
2023-01-28T01:22:23.820Z,99733.94
2023-01-28T01:22:56.702Z,99743.78
2023-01-28T01:23:30.160Z,99739.59
2023-01-28T01:24:02.108Z,99741.66
2023-01-28T01:24:34.269Z,99741.53
2023-01-28T01:25:07.083Z,99741.00
2023-01-28T01:25:40.200Z,99743.28
2023-01-28T01:26:13.531Z,99742.31
2023-01-28T01:26:45.729Z,99737.28
2023-01-28T01:27:17.646Z,99741.00
2023-01-28T01:27:50.128Z,99743.09
2023-01-28T01:28:23.483Z,99741.19
2023-01-28T01:28:58.447Z,99738.62
2023-01-28T01:29:30.388Z,99745.56
2023-01-28T01:30:02.325Z,99744.41
2023-01-28T01:30:34.229Z,99742.00
2023-01-28T01:31:12.765Z,99744.88
2023-01-28T01:31:45.243Z,99740.84
2023-01-28T01:32:18.621Z,99741.84
2023-01-28T01:32:50.560Z,99742.97
2023-01-28T01:33:22.446Z,99748.28
2023-01-28T01:33:54.904Z,99742.78
2023-01-28T01:34:26.793Z,99747.16
2023-01-28T01:34:58.743Z,99738.94
2023-01-28T01:35:30.687Z,99745.38
2023-01-28T01:36:02.627Z,99747.31
2023-01-28T01:36:34.857Z,99746.50
2023-01-28T01:37:08.530Z,99747.63
2023-01-28T01:37:44.802Z,99742.31
2023-01-28T01:38:17.080Z,99748.91
2023-01-28T01:38:53.957Z,99746.81
2023-01-28T01:39:25.898Z,99744.09
2023-01-28T01:39:57.821Z,99744.91
2023-01-28T01:40:30.301Z,99745.69
2023-01-28T01:41:05.038Z,99743.25
2023-01-28T01:41:37.100Z,99751.16
2023-01-28T01:42:12.987Z,99744.03
2023-01-28T01:42:45.184Z,99744.81
2023-01-28T01:43:22.101Z,99747.91
2023-01-28T01:43:58.767Z,99741.66
2023-01-28T01:44:52.410Z,99745.22
2023-01-28T01:45:24.353Z,99743.44
2023-01-28T01:46:01.455Z,99752.66
2023-01-28T01:46:42.046Z,99744.75
2023-01-28T01:47:15.849Z,99748.59
2023-01-28T01:47:50.728Z,99744.41
2023-01-28T01:48:32.813Z,99750.19
2023-01-28T01:49:28.578Z,99745.03
2023-01-28T01:50:12.639Z,99745.75
2023-01-28T01:50:58.818Z,99750.06
2023-01-28T01:51:34.656Z,99748.75
2023-01-28T01:52:11.639Z,99748.28
2023-01-28T01:52:44.762Z,99754.41
2023-01-28T01:53:20.934Z,99753.09
2023-01-28T01:53:55.955Z,99757.47
2023-01-28T01:54:30.905Z,99750.84
2023-01-28T01:55:08.689Z,99748.94
2023-01-28T01:55:44.676Z,99752.16
2023-01-28T01:56:21.455Z,99754.75
2023-01-28T01:56:53.585Z,99756.19
2023-01-28T01:57:33.868Z,99758.31
2023-01-28T01:58:11.195Z,99756.19
2023-01-28T01:58:45.816Z,99760.69
2023-01-28T01:59:25.092Z,99758.13
2023-01-28T02:00:05.936Z,99757.59
2023-01-28T02:00:46.329Z,99757.00
2023-01-28T02:01:23.008Z,99755.41
2023-01-28T02:01:55.636Z,99761.16
2023-01-28T02:02:27.779Z,99757.31
2023-01-28T02:03:01.797Z,99758.25
2023-01-28T02:04:01.074Z,99757.66
2023-01-28T02:04:38.746Z,99757.66
2023-01-28T02:05:15.675Z,99752.16
2023-01-28T02:05:50.356Z,99752.81
2023-01-28T02:06:23.085Z,99756.00
2023-01-28T02:06:55.670Z,99759.56
2023-01-28T02:07:27.975Z,99755.41
2023-01-28T02:08:20.688Z,99759.25
2023-01-28T02:08:56.518Z,99757.47
2023-01-28T02:09:30.759Z,99757.94
2023-01-28T02:10:04.043Z,99753.44
2023-01-28T02:10:36.321Z,99747.94
2023-01-28T02:11:10.175Z,99751.84
2023-01-28T02:11:42.484Z,99753.28
2023-01-28T02:12:20.140Z,99752.97
2023-01-28T02:12:57.970Z,99756.47
2023-01-28T02:13:41.332Z,99751.31
2023-01-28T02:14:22.430Z,99750.72
2023-01-28T02:15:12.563Z,99758.59
2023-01-28T02:15:47.813Z,99748.28
2023-01-28T02:16:19.990Z,99748.91
2023-01-28T02:16:51.950Z,99753.91
2023-01-28T02:17:24.904Z,99748.28
2023-01-28T02:17:57.496Z,99755.69
2023-01-28T02:18:29.469Z,99749.41
2023-01-28T02:19:02.152Z,99752.66
2023-01-28T02:19:50.711Z,99750.69
2023-01-28T02:20:34.762Z,99749.41
2023-01-28T02:21:43.877Z,99753.28
2023-01-28T02:22:33.799Z,99756.00
2023-01-28T02:23:57.019Z,99752.16
2023-01-28T02:24:40.909Z,99746.97
2023-01-28T02:25:20.688Z,99750.97
2023-01-28T02:25:55.249Z,99745.34
2023-01-28T02:26:42.239Z,99748.91
2023-01-28T02:27:51.886Z,99751.16
2023-01-28T02:28:53.203Z,99747.47
2023-01-28T02:29:54.204Z,99745.22
2023-01-28T02:30:33.670Z,99743.44
2023-01-28T02:31:16.365Z,99747.00
2023-01-28T02:31:51.045Z,99738.62
2023-01-28T02:32:29.774Z,99748.94
2023-01-28T02:33:27.364Z,99746.53
2023-01-28T02:34:18.756Z,99743.16
2023-01-28T02:34:54.351Z,99744.53
2023-01-28T02:35:43.554Z,99738.66
2023-01-28T02:36:37.845Z,99740.78
2023-01-28T02:37:18.314Z,99739.03
2023-01-28T02:37:55.440Z,99739.38
2023-01-28T02:38:33.183Z,99745.34
2023-01-28T02:39:13.387Z,99747.41
2023-01-28T02:39:58.132Z,99747.25
2023-01-28T02:40:54.355Z,99743.75
2023-01-28T02:41:33.251Z,99746.78
2023-01-28T02:42:11.073Z,99751.19
2023-01-28T02:42:43.208Z,99744.72
2023-01-28T02:43:15.258Z,99747.75
2023-01-28T02:43:47.716Z,99749.19
2023-01-28T02:44:19.617Z,99742.44
2023-01-28T02:44:51.570Z,99749.19
2023-01-28T02:45:47.657Z,99750.50
2023-01-28T02:46:44.343Z,99750.50
2023-01-28T02:47:35.145Z,99752.44
2023-01-28T02:48:07.420Z,99746.66
2023-01-28T02:48:39.340Z,99741.78
2023-01-28T02:49:43.231Z,99753.75
2023-01-28T02:50:20.691Z,99755.84
2023-01-28T02:51:10.416Z,99751.66
2023-01-28T02:51:57.528Z,99750.03
2023-01-28T02:53:11.949Z,99755.03
2023-01-28T02:54:03.191Z,99758.91
2023-01-28T02:54:44.054Z,99751.44
2023-01-28T02:55:18.638Z,99748.87
2023-01-28T02:55:56.497Z,99752.09
2023-01-28T02:56:40.909Z,99746.34
2023-01-28T02:57:43.219Z,99750.19
2023-01-28T02:58:15.175Z,99749.72
2023-01-28T02:59:31.005Z,99746.69
2023-01-28T03:00:14.966Z,99750.84
2023-01-28T03:01:08.535Z,99743.53
2023-01-28T03:01:46.921Z,99746.28
2023-01-28T03:02:47.119Z,99740.13
2023-01-28T03:03:27.947Z,99741.13
2023-01-28T03:04:03.478Z,99743.03
2023-01-28T03:04:47.983Z,99741.13
2023-01-28T03:05:34.409Z,99738.72
2023-01-28T03:06:12.048Z,99744.69
2023-01-28T03:06:53.687Z,99744.38
2023-01-28T03:07:30.232Z,99745.53
2023-01-28T03:08:26.314Z,99740.19
2023-01-28T03:09:21.193Z,99744.03
2023-01-28T03:09:58.877Z,99742.78
2023-01-28T03:10:31.019Z,99743.75
2023-01-28T03:11:21.687Z,99745.03
2023-01-28T03:12:24.502Z,99742.63
2023-01-28T03:13:17.313Z,99751.50
2023-01-28T03:14:08.151Z,99750.53
2023-01-28T03:14:59.213Z,99742.00
2023-01-28T03:16:06.054Z,99742.13
2023-01-28T03:16:57.074Z,99744.09
2023-01-28T03:17:52.155Z,99750.16
2023-01-28T03:18:51.983Z,99753.41
2023-01-28T03:19:43.645Z,99747.59
2023-01-28T03:20:34.675Z,99749.69
2023-01-28T03:21:31.263Z,99750.19
2023-01-28T03:22:23.574Z,99755.81
2023-01-28T03:23:18.580Z,99749.53
2023-01-28T03:24:50.605Z,99747.78
2023-01-28T03:25:46.051Z,99747.59
2023-01-28T03:26:41.116Z,99746.28
2023-01-28T03:27:43.970Z,99746.41
2023-01-28T03:28:38.742Z,99745.94
2023-01-28T03:29:32.858Z,99753.53
2023-01-28T03:30:30.634Z,99749.50
2023-01-28T03:31:30.428Z,99737.19
2023-01-28T03:32:21.582Z,99743.69
2023-01-28T03:33:13.109Z,99753.66
2023-01-28T03:34:04.212Z,99754.84
2023-01-28T03:34:55.245Z,99752.91
2023-01-28T03:35:50.298Z,99747.59
2023-01-28T03:36:41.854Z,99750.66
2023-01-28T03:37:15.470Z,99750.50
2023-01-28T03:37:48.078Z,99754.03
2023-01-28T03:38:23.063Z,99750.44
2023-01-28T03:38:56.575Z,99750.31
2023-01-28T03:39:30.654Z,99756.59
2023-01-28T03:40:06.176Z,99755.47
2023-01-28T03:41:02.970Z,99754.88
2023-01-28T03:41:35.162Z,99751.50
2023-01-28T03:42:13.048Z,99750.66
2023-01-28T03:42:47.896Z,99754.06
2023-01-28T03:43:24.784Z,99750.19
2023-01-28T03:43:58.393Z,99748.06
2023-01-28T03:44:49.219Z,99754.34
2023-01-28T03:45:22.217Z,99754.06
2023-01-28T03:45:55.551Z,99755.59
2023-01-28T03:46:27.722Z,99757.37
2023-01-28T03:47:00.353Z,99761.59
2023-01-28T03:47:33.036Z,99758.81
2023-01-28T03:48:06.079Z,99758.47
2023-01-28T03:48:38.091Z,99755.59
2023-01-28T03:49:11.803Z,99757.91
2023-01-28T03:49:51.964Z,99759.63
2023-01-28T03:50:24.281Z,99760.47
2023-01-28T03:50:57.411Z,99759.84
2023-01-28T03:51:29.715Z,99757.25
2023-01-28T03:52:02.424Z,99759.22
2023-01-28T03:52:34.395Z,99762.91
2023-01-28T03:53:16.307Z,99756.47
2023-01-28T03:53:49.259Z,99758.09
2023-01-28T03:54:21.170Z,99759.25
2023-01-28T03:54:53.191Z,99757.94
2023-01-28T03:55:25.897Z,99752.09
2023-01-28T03:55:57.986Z,99761.28
2023-01-28T03:56:32.551Z,99753.41
2023-01-28T03:57:06.183Z,99747.59
2023-01-28T03:57:38.069Z,99756.47
2023-01-28T03:58:10.560Z,99756.00
2023-01-28T03:58:56.625Z,99754.72
2023-01-28T03:59:28.785Z,99752.78
2023-01-28T04:00:00.952Z,99748.53
2023-01-28T04:00:34.885Z,99755.94
2023-01-28T04:01:07.515Z,99759.47
2023-01-28T04:01:39.523Z,99756.87
2023-01-28T04:02:12.582Z,99759.47
2023-01-28T04:02:44.931Z,99762.50
2023-01-28T04:03:20.399Z,99757.25
2023-01-28T04:03:53.252Z,99760.34
2023-01-28T04:04:26.758Z,99754.72
2023-01-28T04:04:59.733Z,99758.91
2023-01-28T04:05:32.262Z,99766.75
2023-01-28T04:06:07.425Z,99762.06
2023-01-28T04:06:41.648Z,99762.84
2023-01-28T04:07:15.498Z,99764.37
2023-01-28T04:07:51.828Z,99757.28
2023-01-28T04:08:24.134Z,99761.47
2023-01-28T04:08:59.525Z,99762.28
2023-01-28T04:09:32.008Z,99761.16
2023-01-28T04:10:05.658Z,99760.81
2023-01-28T04:10:40.975Z,99762.75
2023-01-28T04:11:16.181Z,99758.91
2023-01-28T04:11:49.471Z,99759.72
2023-01-28T04:12:23.685Z,99766.78
2023-01-28T04:12:56.839Z,99766.31
2023-01-28T04:13:29.834Z,99756.47
2023-01-28T04:14:01.818Z,99760.50
2023-01-28T04:14:36.472Z,99764.03
2023-01-28T04:15:15.818Z,99760.81
2023-01-28T04:15:49.254Z,99759.19
2023-01-28T04:16:21.438Z,99765.66
2023-01-28T04:16:55.048Z,99763.06
2023-01-28T04:17:27.893Z,99765.00
2023-01-28T04:18:01.740Z,99763.75
2023-01-28T04:18:34.276Z,99764.87
2023-01-28T04:19:09.121Z,99765.34
2023-01-28T04:19:41.886Z,99765.34
2023-01-28T04:20:15.115Z,99765.53
2023-01-28T04:20:49.633Z,99756.00
2023-01-28T04:21:22.865Z,99760.22
2023-01-28T04:21:56.724Z,99762.75
2023-01-28T04:22:29.174Z,99757.13
2023-01-28T04:23:01.263Z,99761.16
2023-01-28T04:23:34.932Z,99758.56
2023-01-28T04:24:08.112Z,99762.06
2023-01-28T04:24:40.246Z,99755.47
2023-01-28T04:25:12.638Z,99760.34
2023-01-28T04:25:44.778Z,99765.97
2023-01-28T04:26:16.766Z,99760.84
2023-01-28T04:26:49.032Z,99764.22
2023-01-28T04:27:21.632Z,99765.66
2023-01-28T04:27:54.414Z,99760.50
2023-01-28T04:28:26.811Z,99763.75
2023-01-28T04:28:58.962Z,99767.13
2023-01-28T04:29:31.750Z,99767.63
2023-01-28T04:30:04.384Z,99766.47
2023-01-28T04:30:36.711Z,99766.97
2023-01-28T04:31:09.343Z,99765.03
2023-01-28T04:31:41.504Z,99767.91
2023-01-28T04:32:14.054Z,99770.50
2023-01-28T04:32:47.976Z,99767.78
2023-01-28T04:33:21.539Z,99767.28
2023-01-28T04:33:55.030Z,99762.13
2023-01-28T04:34:27.479Z,99766.31
2023-01-28T04:35:00.007Z,99769.03
2023-01-28T04:35:32.075Z,99763.22
2023-01-28T04:36:04.794Z,99766.31
2023-01-28T04:36:36.919Z,99766.00
2023-01-28T04:37:09.375Z,99768.44
2023-01-28T04:37:46.432Z,99773.41
2023-01-28T04:38:18.814Z,99770.22
2023-01-28T04:38:51.147Z,99769.22
2023-01-28T04:39:23.629Z,99763.88
2023-01-28T04:39:57.898Z,99777.78
2023-01-28T04:40:32.546Z,99778.56
2023-01-28T04:41:05.156Z,99778.59
2023-01-28T04:41:37.986Z,99769.72
2023-01-28T04:42:10.489Z,99777.63
2023-01-28T04:42:56.894Z,99778.94
2023-01-28T04:43:29.429Z,99777.63
2023-01-28T04:44:01.633Z,99776.31
2023-01-28T04:44:34.274Z,99774.72
2023-01-28T04:45:07.080Z,99780.53
2023-01-28T04:45:39.084Z,99776.59
2023-01-28T04:46:11.630Z,99779.19
2023-01-28T04:46:44.623Z,99773.91
2023-01-28T04:47:16.759Z,99780.81
2023-01-28T04:47:49.107Z,99777.59
2023-01-28T04:48:21.140Z,99778.75
2023-01-28T04:48:55.262Z,99778.72
2023-01-28T04:49:27.800Z,99779.34
2023-01-28T04:50:01.799Z,99772.47
2023-01-28T04:50:34.744Z,99774.38
2023-01-28T04:51:09.694Z,99776.66
2023-01-28T04:51:42.605Z,99777.63
2023-01-28T04:52:15.003Z,99776.03
2023-01-28T04:52:47.274Z,99775.38
2023-01-28T04:53:19.368Z,99773.78
2023-01-28T04:53:51.473Z,99778.28
2023-01-28T04:54:24.086Z,99783.78
2023-01-28T04:54:57.447Z,99778.63
2023-01-28T04:55:29.528Z,99775.91
2023-01-28T04:56:01.830Z,99780.34
2023-01-28T04:56:35.160Z,99772.47
2023-01-28T04:57:08.064Z,99781.34
2023-01-28T04:57:40.337Z,99782.78
2023-01-28T04:58:12.541Z,99776.03
2023-01-28T04:58:48.502Z,99778.28
2023-01-28T04:59:20.843Z,99778.94
2023-01-28T04:59:53.255Z,99777.03
2023-01-28T05:00:25.612Z,99779.87
2023-01-28T05:01:00.333Z,99784.03
2023-01-28T05:01:32.319Z,99775.38
2023-01-28T05:02:04.456Z,99784.06
2023-01-28T05:02:36.800Z,99777.78
2023-01-28T05:03:08.704Z,99783.59
2023-01-28T05:03:40.699Z,99777.31
2023-01-28T05:04:13.635Z,99783.62
2023-01-28T05:04:45.577Z,99781.84
2023-01-28T05:05:20.473Z,99782.00
2023-01-28T05:05:53.391Z,99783.12
2023-01-28T05:06:25.738Z,99776.62
2023-01-28T05:06:58.589Z,99780.81
2023-01-28T05:07:31.058Z,99783.72
2023-01-28T05:08:03.044Z,99782.47
2023-01-28T05:08:35.868Z,99775.69
2023-01-28T05:09:08.063Z,99779.06
2023-01-28T05:09:40.501Z,99783.12
2023-01-28T05:10:12.844Z,99785.84
2023-01-28T05:10:45.255Z,99781.19
2023-01-28T05:11:17.168Z,99787.63
2023-01-28T05:11:49.912Z,99787.59
2023-01-28T05:12:22.131Z,99784.56
2023-01-28T05:12:54.454Z,99787.59
2023-01-28T05:13:26.936Z,99785.00
2023-01-28T05:13:58.901Z,99790.00
2023-01-28T05:14:32.130Z,99790.78
2023-01-28T05:15:05.137Z,99785.94
2023-01-28T05:15:37.182Z,99788.78
2023-01-28T05:16:09.402Z,99786.16
2023-01-28T05:16:41.879Z,99786.84
2023-01-28T05:17:13.844Z,99791.75
2023-01-28T05:17:46.352Z,99797.69
2023-01-28T05:18:18.868Z,99788.37
2023-01-28T05:18:51.539Z,99799.16
2023-01-28T05:19:23.819Z,99791.09
2023-01-28T05:19:55.816Z,99790.56
2023-01-28T05:20:28.006Z,99798.19
2023-01-28T05:21:01.076Z,99796.25
2023-01-28T05:21:34.875Z,99795.66
2023-01-28T05:22:07.065Z,99798.72
2023-01-28T05:22:41.284Z,99800.50
2023-01-28T05:23:13.477Z,99802.13
2023-01-28T05:23:45.541Z,99791.31
2023-01-28T05:24:17.500Z,99797.13
2023-01-28T05:24:49.562Z,99809.16
2023-01-28T05:25:21.490Z,99803.41
2023-01-28T05:25:53.470Z,99805.34
2023-01-28T05:26:25.537Z,99801.16
2023-01-28T05:26:57.968Z,99805.66
2023-01-28T05:27:31.097Z,99805.19
2023-01-28T05:28:03.927Z,99800.66
2023-01-28T05:28:36.236Z,99805.66
2023-01-28T05:29:08.309Z,99802.63
2023-01-28T05:29:40.331Z,99805.69
2023-01-28T05:30:13.302Z,99805.66
2023-01-28T05:30:45.507Z,99804.53
2023-01-28T05:31:17.478Z,99803.22
2023-01-28T05:31:49.438Z,99801.31
2023-01-28T05:32:21.813Z,99801.94
2023-01-28T05:32:57.617Z,99805.31
2023-01-28T05:33:29.890Z,99803.22
2023-01-28T05:34:02.203Z,99804.88
2023-01-28T05:34:34.103Z,99806.66
2023-01-28T05:35:06.630Z,99801.63
2023-01-28T05:35:38.979Z,99796.94
2023-01-28T05:36:11.208Z,99803.75
2023-01-28T05:36:43.377Z,99806.78
2023-01-28T05:37:17.217Z,99806.94
2023-01-28T05:37:49.905Z,99809.72
2023-01-28T05:38:22.254Z,99808.09
2023-01-28T05:38:54.239Z,99808.72
2023-01-28T05:39:26.189Z,99805.81
2023-01-28T05:39:58.150Z,99810.34
2023-01-28T05:40:30.172Z,99807.12
2023-01-28T05:41:02.453Z,99813.06
2023-01-28T05:41:34.907Z,99810.50
2023-01-28T05:42:07.180Z,99809.38
2023-01-28T05:42:39.595Z,99810.50
2023-01-28T05:43:15.269Z,99812.75
2023-01-28T05:43:48.358Z,99821.16
2023-01-28T05:44:20.607Z,99813.28
2023-01-28T05:44:52.818Z,99809.22
2023-01-28T05:45:26.697Z,99813.88
2023-01-28T05:46:00.983Z,99810.63
2023-01-28T05:46:33.596Z,99813.06
2023-01-28T05:47:05.974Z,99810.81
2023-01-28T05:47:38.646Z,99810.37
2023-01-28T05:48:10.723Z,99815.84
2023-01-28T05:48:43.159Z,99821.16
2023-01-28T05:49:16.689Z,99813.75
2023-01-28T05:49:50.559Z,99816.78
2023-01-28T05:50:23.437Z,99815.31
2023-01-28T05:51:08.272Z,99818.25
2023-01-28T05:51:40.990Z,99818.41
2023-01-28T05:52:13.655Z,99811.59
2023-01-28T05:52:45.979Z,99819.16
2023-01-28T05:53:19.257Z,99813.31
2023-01-28T05:53:51.779Z,99813.97
2023-01-28T05:54:23.677Z,99813.84
2023-01-28T05:54:55.660Z,99812.72
2023-01-28T05:55:27.945Z,99819.66
2023-01-28T05:55:59.877Z,99812.53
2023-01-28T05:56:33.827Z,99814.31
2023-01-28T05:57:05.846Z,99821.91
2023-01-28T05:57:38.653Z,99818.69
2023-01-28T05:58:11.832Z,99819.03
2023-01-28T05:58:43.758Z,99813.72
2023-01-28T05:59:16.831Z,99826.28
2023-01-28T05:59:48.922Z,99826.31
2023-01-28T06:00:21.897Z,99826.63
2023-01-28T06:00:56.092Z,99828.22
2023-01-28T06:01:31.974Z,99827.09
2023-01-28T06:02:04.348Z,99826.50
2023-01-28T06:02:36.540Z,99827.94
2023-01-28T06:03:09.350Z,99824.69
2023-01-28T06:03:41.582Z,99824.03
2023-01-28T06:04:13.645Z,99822.47
2023-01-28T06:04:45.636Z,99828.88
2023-01-28T06:05:17.632Z,99826.31
2023-01-28T06:05:49.570Z,99833.72
2023-01-28T06:06:21.867Z,99829.84
2023-01-28T06:06:53.729Z,99828.53
2023-01-28T06:07:25.683Z,99833.06
2023-01-28T06:07:57.598Z,99834.37
2023-01-28T06:08:29.627Z,99829.03
2023-01-28T06:09:01.635Z,99833.91
2023-01-28T06:09:34.684Z,99830.81
2023-01-28T06:10:07.454Z,99840.16
2023-01-28T06:10:39.461Z,99834.03
2023-01-28T06:11:11.518Z,99840.47
2023-01-28T06:11:45.651Z,99841.09
2023-01-28T06:12:18.694Z,99844.34
2023-01-28T06:12:51.558Z,99849.06
2023-01-28T06:13:24.416Z,99842.78
2023-01-28T06:13:56.923Z,99844.34
2023-01-28T06:14:29.070Z,99840.81
2023-01-28T06:15:08.201Z,99840.47
2023-01-28T06:15:40.458Z,99841.28
2023-01-28T06:16:13.723Z,99842.44
2023-01-28T06:16:46.529Z,99848.91
2023-01-28T06:17:18.691Z,99841.78
2023-01-28T06:17:50.774Z,99840.50
2023-01-28T06:18:24.697Z,99847.28
2023-01-28T06:18:56.820Z,99849.25
2023-01-28T06:19:28.728Z,99842.13
2023-01-28T06:20:00.691Z,99846.00
2023-01-28T06:20:33.681Z,99843.69
2023-01-28T06:21:05.835Z,99843.69
2023-01-28T06:21:37.765Z,99849.06
2023-01-28T06:22:10.653Z,99851.78
2023-01-28T06:22:43.122Z,99847.56
2023-01-28T06:23:15.480Z,99848.84
2023-01-28T06:23:47.647Z,99849.66
2023-01-28T06:24:19.807Z,99851.13
2023-01-28T06:24:51.733Z,99852.75
2023-01-28T06:25:23.613Z,99857.72
2023-01-28T06:25:58.620Z,99850.50
2023-01-28T06:26:30.694Z,99850.16
2023-01-28T06:27:02.692Z,99843.69
2023-01-28T06:27:34.930Z,99846.25
2023-01-28T06:28:06.938Z,99851.56
2023-01-28T06:28:38.819Z,99852.53
2023-01-28T06:29:10.810Z,99848.97
2023-01-28T06:29:42.743Z,99851.72
2023-01-28T06:30:15.073Z,99851.06
2023-01-28T06:30:51.127Z,99847.84
2023-01-28T06:31:23.067Z,99848.50
2023-01-28T06:31:55.040Z,99853.34
2023-01-28T06:32:27.235Z,99857.09
2023-01-28T06:32:59.738Z,99854.66
2023-01-28T06:33:32.500Z,99854.34
2023-01-28T06:34:04.793Z,99854.66
2023-01-28T06:34:36.680Z,99855.13
2023-01-28T06:35:08.969Z,99854.34
2023-01-28T06:35:40.939Z,99852.56
2023-01-28T06:36:12.867Z,99856.44
2023-01-28T06:36:48.017Z,99861.94
2023-01-28T06:37:20.012Z,99859.03
2023-01-28T06:37:53.343Z,99859.84
2023-01-28T06:38:25.533Z,99859.03
2023-01-28T06:38:57.628Z,99858.22
2023-01-28T06:39:31.904Z,99866.13
2023-01-28T06:40:04.507Z,99858.09
2023-01-28T06:40:37.269Z,99863.06
2023-01-28T06:41:09.175Z,99861.59
2023-01-28T06:41:41.064Z,99863.03
2023-01-28T06:42:12.986Z,99857.53
2023-01-28T06:42:45.258Z,99863.66
2023-01-28T06:43:17.169Z,99860.94
2023-01-28T06:43:49.494Z,99866.59
2023-01-28T06:44:23.544Z,99866.25
2023-01-28T06:44:55.413Z,99870.28
2023-01-28T06:45:27.439Z,99864.53
2023-01-28T06:45:59.714Z,99867.19
2023-01-28T06:46:31.678Z,99869.31
2023-01-28T06:47:03.777Z,99870.81
2023-01-28T06:47:35.670Z,99871.59
2023-01-28T06:48:08.889Z,99874.69
2023-01-28T06:48:40.888Z,99869.38
2023-01-28T06:49:13.067Z,99872.25
2023-01-28T06:49:44.977Z,99870.81
2023-01-28T06:50:17.494Z,99876.44
2023-01-28T06:50:49.955Z,99872.13
2023-01-28T06:51:21.849Z,99881.59
2023-01-28T06:51:53.926Z,99870.78
2023-01-28T06:52:25.859Z,99877.09
2023-01-28T06:52:57.747Z,99872.41
2023-01-28T06:53:29.979Z,99876.41
2023-01-28T06:54:01.912Z,99873.03
2023-01-28T06:54:34.101Z,99879.31
2023-01-28T06:55:06.310Z,99880.91
2023-01-28T06:55:38.173Z,99884.78
2023-01-28T06:56:10.159Z,99883.66
2023-01-28T06:56:42.302Z,99882.34
2023-01-28T06:57:14.198Z,99885.59
2023-01-28T06:57:46.032Z,99887.31